Time;durP1;ratioP1;P1;durP2;ratioP2;P2;SDS_P1;SDS_P2;PMS_P1;PMS_P2;Temp;Humidity;BMP_temperature;BMP_pressure;BME280_temperature;BME280_humidity;BME280_pressure;Samples;Min_cycle;Max_cycle;Signal;HPM_P1;HPM_P2
2023/09/27 04:01:26;;;;;;;3.90;2.60;;;14.90;82.90;;;;;;6259144;22;20462;-73
2023/09/27 04:03:52;;;;;;;3.20;2.90;;;15.00;84.10;;;;;;6308897;22;20483;-73
2023/09/27 04:06:19;;;;;;;4.43;2.73;;;15.10;84.60;;;;;;6308850;22;20736;-73
2023/09/27 04:08:46;;;;;;;2.57;2.37;;;15.10;85.40;;;;;;6308804;22;20435;-73
2023/09/27 04:11:12;;;;;;;2.67;2.27;;;15.20;85.50;;;;;;6297715;22;20441;-73
2023/09/27 04:13:39;;;;;;;4.10;2.60;;;15.30;84.90;;;;;;6277425;22;20868;-73
2023/09/27 04:16:07;;;;;;;2.80;2.50;;;15.30;84.70;;;;;;6278456;22;20397;-73
2023/09/27 04:18:36;;;;;;;2.67;2.20;;;15.40;84.80;;;;;;6277778;22;20401;-73
2023/09/27 04:21:07;;;;;;;2.13;1.80;;;15.50;84.60;;;;;;6277667;22;20532;-73
2023/09/27 04:23:34;;;;;;;2.50;2.23;;;15.60;84.20;;;;;;6277799;22;20730;-73
2023/09/27 04:26:01;;;;;;;2.60;2.07;;;15.60;84.00;;;;;;6277666;22;20451;-73
2023/09/27 04:28:28;;;;;;;3.20;2.77;;;15.50;84.10;;;;;;6277678;22;20405;-74
2023/09/27 04:30:55;;;;;;;2.63;2.40;;;15.50;84.40;;;;;;6277484;22;20472;-73
2023/09/27 04:33:21;;;;;;;2.77;2.30;;;15.50;84.30;;;;;;6277461;22;20406;-73
2023/09/27 04:35:49;;;;;;;3.00;2.20;;;15.60;84.00;;;;;;6277167;22;20930;-73
2023/09/27 04:38:16;;;;;;;2.77;2.40;;;15.60;83.80;;;;;;6277609;22;20424;-73
2023/09/27 04:40:43;;;;;;;3.70;2.43;;;15.50;83.90;;;;;;6277481;22;20421;-73
2023/09/27 04:43:10;;;;;;;3.03;2.70;;;15.60;83.90;;;;;;6277140;22;20742;-73
2023/09/27 04:45:37;;;;;;;3.87;2.70;;;15.60;83.60;;;;;;6277141;22;20900;-73
2023/09/27 04:48:05;;;;;;;2.53;2.20;;;15.50;83.60;;;;;;6277796;22;20421;-73
2023/09/27 04:50:32;;;;;;;2.80;1.97;;;15.50;83.90;;;;;;6277366;22;20397;-73
2023/09/27 04:53:00;;;;;;;3.03;2.67;;;15.50;83.80;;;;;;6277305;22;20445;-73
2023/09/27 04:55:27;;;;;;;2.73;2.20;;;15.60;83.50;;;;;;6277040;22;20922;-73
2023/09/27 04:57:54;;;;;;;4.97;2.67;;;15.60;83.30;;;;;;6277282;22;20888;-73
2023/09/27 05:00:22;;;;;;;2.60;2.03;;;15.70;83.10;;;;;;6277335;22;20424;-73
2023/09/27 05:02:49;;;;;;;2.70;2.33;;;15.60;83.10;;;;;;6277244;22;20416;-73
2023/09/27 05:05:16;;;;;;;2.73;2.10;;;15.70;82.80;;;;;;6277378;22;20401;-73
2023/09/27 05:07:43;;;;;;;2.73;2.23;;;15.60;82.90;;;;;;6277311;22;20405;-73
2023/09/27 05:10:12;;;;;;;2.60;2.13;;;15.60;82.90;;;;;;6277183;22;20408;-73
2023/09/27 05:12:39;;;;;;;2.80;2.20;;;15.60;82.90;;;;;;6277287;22;20528;-73
2023/09/27 05:15:07;;;;;;;3.23;2.23;;;15.50;83.00;;;;;;6277102;22;20398;-73
2023/09/27 05:17:34;;;;;;;2.93;2.43;;;15.50;83.10;;;;;;6277743;22;20405;-73
2023/09/27 05:20:01;;;;;;;2.50;2.07;;;15.30;82.40;;;;;;6276745;22;20954;-73
2023/09/27 05:22:27;;;;;;;3.10;2.60;;;15.20;82.40;;;;;;6277031;22;20504;-73
2023/09/27 05:24:54;;;;;;;2.30;2.03;;;15.20;82.70;;;;;;6277118;22;20465;-73
2023/09/27 05:27:22;;;;;;;2.50;2.10;;;15.30;82.00;;;;;;6277077;22;20464;-73
2023/09/27 05:29:49;;;;;;;2.73;2.20;;;15.40;81.80;;;;;;6277161;22;20424;-74
2023/09/27 05:32:16;;;;;;;3.07;2.37;;;15.50;82.20;;;;;;6276597;22;20958;-74
2023/09/27 05:34:43;;;;;;;2.80;2.10;;;15.80;82.00;;;;;;6277034;22;20404;-75
2023/09/27 05:37:10;;;;;;;3.30;2.40;;;16.10;80.90;;;;;;6277247;22;20490;-75
2023/09/27 05:39:36;;;;;;;2.60;2.37;;;16.40;80.30;;;;;;6277040;22;20405;-75
2023/09/27 05:42:03;;;;;;;3.27;2.20;;;16.30;80.70;;;;;;6276855;22;20424;-74
2023/09/27 05:44:31;;;;;;;3.23;2.13;;;16.40;80.40;;;;;;6276640;22;20421;-75
2023/09/27 05:46:58;;;;;;;3.10;2.50;;;16.50;80.20;;;;;;6276914;22;20404;-75
2023/09/27 05:49:25;;;;;;;2.43;2.03;;;16.40;79.90;;;;;;6276886;22;20405;-75
2023/09/27 05:51:53;;;;;;;3.43;2.37;;;16.30;79.50;;;;;;6276714;22;20468;-74
2023/09/27 05:54:20;;;;;;;2.40;1.90;;;16.40;79.30;;;;;;6276892;22;20597;-74
2023/09/27 05:56:50;;;;;;;3.13;2.57;;;16.50;79.20;;;;;;6276867;22;20446;-73
2023/09/27 05:59:17;;;;;;;3.07;2.47;;;16.10;80.10;;;;;;6277841;22;20398;-74
2023/09/27 06:01:47;;;;;;;3.70;3.10;;;16.10;80.30;;;;;;6276263;22;20483;-74
2023/09/27 06:04:14;;;;;;;3.93;2.60;;;16.20;79.90;;;;;;6276715;22;20406;-74
2023/09/27 06:06:40;;;;;;;3.20;2.80;;;16.30;79.80;;;;;;6277037;22;20397;-73
2023/09/27 06:09:09;;;;;;;4.00;2.83;;;16.40;79.50;;;;;;6276746;22;20739;-73
2023/09/27 06:11:35;;;;;;;3.20;2.23;;;16.40;79.40;;;;;;6276508;22;20472;-74
2023/09/27 06:14:02;;;;;;;2.93;2.37;;;16.30;79.90;;;;;;6276248;22;20507;-74
2023/09/27 06:16:29;;;;;;;2.30;1.80;;;16.50;80.50;;;;;;6276728;22;20401;-74
2023/09/27 06:18:58;;;;;;;2.50;2.30;;;17.30;80.00;;;;;;6276681;22;20451;-74
2023/09/27 06:21:25;;;;;;;4.87;2.33;;;18.50;75.50;;;;;;6276562;22;20432;-74
2023/09/27 06:23:51;;;;;;;3.03;2.20;;;19.60;71.50;;;;;;6277014;22;20401;-74
2023/09/27 06:26:18;;;;;;;3.33;2.37;;;20.70;68.80;;;;;;6276629;22;20401;-74
2023/09/27 06:28:44;;;;;;;2.40;2.00;;;21.80;66.80;;;;;;6276105;22;20416;-74
2023/09/27 06:31:13;;;;;;;4.50;2.30;;;22.70;63.50;;;;;;6276453;22;20741;-74
2023/09/27 06:33:40;;;;;;;2.50;2.07;;;23.00;62.90;;;;;;6276540;22;20801;-74
2023/09/27 06:36:09;;;;;;;2.43;2.07;;;23.10;61.90;;;;;;6276572;22;20401;-74
2023/09/27 06:38:36;;;;;;;2.77;2.03;;;23.00;62.40;;;;;;6277215;22;20468;-74
2023/09/27 06:41:03;;;;;;;3.70;1.70;;;23.20;62.00;;;;;;6276049;22;21007;-74
2023/09/27 06:43:31;;;;;;;2.57;2.00;;;23.80;60.80;;;;;;6276520;22;20393;-74
2023/09/27 06:45:58;;;;;;;3.30;1.80;;;24.50;58.70;;;;;;6276373;22;20863;-74
2023/09/27 06:48:25;;;;;;;3.40;2.57;;;25.10;57.40;;;;;;6276318;22;20417;-75
2023/09/27 06:50:52;;;;;;;2.83;2.13;;;25.80;56.60;;;;;;6276358;22;20427;-74
2023/09/27 06:53:20;;;;;;;3.50;1.87;;;26.80;54.30;;;;;;6276049;22;20958;-75
2023/09/27 06:55:49;;;;;;;2.90;2.43;;;27.10;53.30;;;;;;6276555;22;20397;-75
2023/09/27 06:58:22;;;;;;;3.33;2.40;;;27.70;53.00;;;;;;6278536;22;20409;-74
2023/09/27 07:00:50;;;;;;;3.17;2.20;;;28.40;51.20;;;;;;6278260;22;20567;-75
2023/09/27 07:03:16;;;;;;;3.30;2.40;;;28.80;50.50;;;;;;6278508;22;20380;-75
2023/09/27 07:05:43;;;;;;;2.77;2.10;;;28.30;50.40;;;;;;6278470;22;20401;-74
2023/09/27 07:08:10;;;;;;;2.93;2.43;;;27.70;51.90;;;;;;6278024;22;20397;-74
2023/09/27 07:10:38;;;;;;;2.20;1.93;;;27.90;52.40;;;;;;6278251;22;20401;-74
2023/09/27 07:13:06;;;;;;;2.80;2.33;;;27.90;51.70;;;;;;6278950;22;20433;-74
2023/09/27 07:15:33;;;;;;;2.63;2.37;;;27.40;52.50;;;;;;6278350;22;20408;-75
2023/09/27 07:18:00;;;;;;;2.90;2.00;;;27.10;53.40;;;;;;6277968;22;20910;-75
2023/09/27 07:20:32;;;;;;;3.03;2.30;;;26.70;54.10;;;;;;6278238;22;20404;-75
2023/09/27 07:22:59;;;;;;;2.60;2.00;;;25.70;56.30;;;;;;6278252;22;20890;-75
2023/09/27 07:25:28;;;;;;;5.37;2.73;;;24.90;58.90;;;;;;6278241;22;20408;-75
2023/09/27 07:27:56;;;;;;;3.30;1.80;;;24.40;59.90;;;;;;6278169;22;20420;-75
2023/09/27 07:30:24;;;;;;;2.20;1.80;;;24.20;60.90;;;;;;6278386;22;20401;-75
2023/09/27 07:32:51;;;;;;;5.70;2.10;;;23.70;61.70;;;;;;6278414;22;20432;-75
2023/09/27 07:35:18;;;;;;;2.50;1.83;;;23.00;63.60;;;;;;6277752;22;20971;-74
2023/09/27 07:37:45;;;;;;;2.43;1.83;;;22.90;64.50;;;;;;6278138;22;20409;-74
2023/09/27 07:40:14;;;;;;;2.53;2.13;;;22.70;64.70;;;;;;6278107;22;20401;-74
2023/09/27 07:42:42;;;;;;;2.30;1.73;;;21.90;66.50;;;;;;6277989;22;20422;-74
2023/09/27 07:45:20;;;;;;;3.20;2.03;;;21.50;68.10;;;;;;6278007;22;20410;-74
2023/09/27 07:47:48;;;;;;;4.50;2.20;;;21.70;67.50;;;;;;6277764;22;20847;-74
2023/09/27 07:50:15;;;;;;;2.70;2.20;;;21.60;67.50;;;;;;6277967;22;20467;-73
2023/09/27 07:52:42;;;;;;;3.83;2.10;;;21.60;68.40;;;;;;6278080;22;20448;-74
2023/09/27 07:55:11;;;;;;;2.90;1.90;;;21.60;68.30;;;;;;6277614;22;20883;-73
2023/09/27 07:57:43;;;;;;;2.77;1.73;;;21.60;68.50;;;;;;6277983;22;20456;-73
2023/09/27 08:00:15;;;;;;;2.10;1.70;;;21.50;68.30;;;;;;6277541;22;20795;-73
2023/09/27 08:02:42;;;;;;;2.70;1.83;;;21.30;69.20;;;;;;6277719;22;20436;-73
2023/09/27 08:05:10;;;;;;;2.60;1.90;;;21.30;68.90;;;;;;6277848;22;20408;-73
2023/09/27 08:07:38;;;;;;;4.03;2.23;;;21.10;69.60;;;;;;6277803;22;20401;-73
2023/09/27 08:10:05;;;;;;;3.30;2.00;;;21.20;69.70;;;;;;6277935;22;20431;-73
2023/09/27 08:12:34;;;;;;;2.90;2.17;;;21.30;69.20;;;;;;6277722;22;20445;-73
2023/09/27 08:15:03;;;;;;;2.20;1.90;;;21.20;70.40;;;;;;6277845;22;20409;-73
2023/09/27 08:17:32;;;;;;;2.80;1.63;;;21.00;70.10;;;;;;6277360;22;20786;-74
2023/09/27 08:19:58;;;;;;;2.87;1.80;;;21.00;70.60;;;;;;6277736;22;20496;-72
2023/09/27 08:22:26;;;;;;;2.30;1.97;;;21.40;70.80;;;;;;6277189;22;20429;-73
2023/09/27 08:24:53;;;;;;;2.17;1.40;;;21.60;69.10;;;;;;6277330;22;20461;-73
2023/09/27 08:27:19;;;;;;;4.00;1.80;;;21.50;68.50;;;;;;6277620;22;20507;-73
2023/09/27 08:29:46;;;;;;;2.40;1.83;;;21.40;68.90;;;;;;6277640;22;20431;-74
2023/09/27 08:32:13;;;;;;;2.37;1.77;;;21.80;68.30;;;;;;6277013;22;20939;-74
2023/09/27 08:34:41;;;;;;;2.60;1.97;;;21.90;66.80;;;;;;6277490;22;20397;-74
2023/09/27 08:37:11;;;;;;;2.73;1.60;;;22.00;66.70;;;;;;6277548;22;20408;-73
2023/09/27 08:39:38;;;;;;;3.03;1.60;;;22.00;66.90;;;;;;6277576;22;20440;-74
2023/09/27 08:42:05;;;;;;;2.20;1.57;;;21.90;66.30;;;;;;6277463;22;20425;-75
2023/09/27 08:44:32;;;;;;;2.07;1.70;;;21.70;66.50;;;;;;6277100;22;20783;-75
2023/09/27 08:47:00;;;;;;;3.40;1.77;;;21.80;67.60;;;;;;6277930;22;20722;-75
2023/09/27 08:49:27;;;;;;;2.20;1.53;;;21.60;68.20;;;;;;6277491;22;20409;-76
2023/09/27 08:51:56;;;;;;;1.90;1.30;;;21.60;68.00;;;;;;6277358;22;20421;-74
2023/09/27 08:54:23;;;;;;;3.53;1.57;;;21.70;67.30;;;;;;6277378;22;20788;-74
2023/09/27 08:56:51;;;;;;;2.00;1.37;;;21.70;68.50;;;;;;6277445;22;20452;-74
2023/09/27 08:59:19;;;;;;;2.60;1.80;;;21.80;69.10;;;;;;6277410;22;20393;-74
2023/09/27 09:01:47;;;;;;;2.53;1.40;;;21.60;67.70;;;;;;6277059;22;20452;-74
2023/09/27 09:04:14;;;;;;;2.00;1.50;;;21.60;67.90;;;;;;6277682;22;20397;-69
2023/09/27 09:06:42;;;;;;;2.63;1.73;;;21.70;68.90;;;;;;6277977;22;20462;-70
2023/09/27 09:09:11;;;;;;;2.10;1.70;;;21.60;69.00;;;;;;6277289;22;20717;-69
2023/09/27 09:11:43;;;;;;;2.03;1.60;;;21.60;69.50;;;;;;6277155;22;20423;-70
2023/09/27 09:14:10;;;;;;;2.83;1.93;;;21.60;69.40;;;;;;6277169;22;20421;-69
2023/09/27 09:16:47;;;;;;;2.20;1.57;;;21.70;69.60;;;;;;6276801;22;20405;-69
2023/09/27 09:19:20;;;;;;;3.70;2.10;;;21.70;70.00;;;;;;6276336;22;20828;-71
2023/09/27 09:21:55;;;;;;;2.83;1.80;;;21.70;69.40;;;;;;6276652;22;20426;-71
2023/09/27 09:24:24;;;;;;;2.50;2.00;;;21.90;70.10;;;;;;6277168;22;20389;-70
2023/09/27 09:27:07;;;;;;;3.93;1.90;;;21.80;69.30;;;;;;6277043;22;20401;-71
2023/09/27 09:29:45;;;;;;;2.53;1.70;;;21.80;69.80;;;;;;6277099;22;20440;-73
2023/09/27 09:32:13;;;;;;;3.17;1.67;;;21.90;71.10;;;;;;6276825;22;20420;-72
2023/09/27 09:34:41;;;;;;;2.60;1.83;;;21.90;71.40;;;;;;6276962;22;20408;-72
2023/09/27 09:37:16;;;;;;;3.20;2.00;;;21.90;70.70;;;;;;6276958;22;20429;-71
2023/09/27 09:39:45;;;;;;;2.20;1.70;;;21.80;69.80;;;;;;6277006;22;20405;-70
2023/09/27 09:42:12;;;;;;;2.83;1.90;;;21.80;71.50;;;;;;6276427;22;20444;-71
2023/09/27 09:44:39;;;;;;;1.90;1.50;;;21.90;70.30;;;;;;6277149;22;20433;-70
2023/09/27 09:47:11;;;;;;;4.23;2.20;;;21.90;69.90;;;;;;6276848;22;20401;-70
2023/09/27 09:49:38;;;;;;;2.70;1.57;;;22.00;69.00;;;;;;6276796;22;20724;-70
2023/09/27 09:52:05;;;;;;;1.83;1.40;;;22.00;70.00;;;;;;6277128;22;20421;-70
2023/09/27 09:54:37;;;;;;;3.93;1.83;;;22.00;69.10;;;;;;6276898;22;20490;-70
2023/09/27 09:57:07;;;;;;;2.93;1.60;;;22.10;70.10;;;;;;6276657;22;20724;-72
2023/09/27 09:59:38;;;;;;;2.77;1.50;;;22.20;70.70;;;;;;6277650;22;20401;-71
2023/09/27 10:02:18;;;;;;;2.40;1.70;;;22.40;68.60;;;;;;6276587;22;20952;-71
2023/09/27 10:04:45;;;;;;;4.53;1.50;;;22.40;67.20;;;;;;6276819;22;20392;-71
2023/09/27 10:07:14;;;;;;;2.70;1.60;;;22.40;67.50;;;;;;6276784;22;20405;-70
2023/09/27 10:09:42;;;;;;;2.20;1.87;;;22.40;68.10;;;;;;6276743;22;20508;-71
2023/09/27 10:12:11;;;;;;;2.07;1.60;;;22.50;67.70;;;;;;6276551;22;20425;-70
2023/09/27 10:14:38;;;;;;;2.03;1.63;;;22.60;68.50;;;;;;6276526;22;20433;-70
2023/09/27 10:17:05;;;;;;;2.10;1.43;;;22.60;66.70;;;;;;6299514;22;20471;-71
2023/09/27 10:19:32;;;;;;;2.00;1.60;;;22.70;66.60;;;;;;6307513;22;20404;-71
2023/09/27 10:22:05;;;;;;;3.80;1.80;;;22.60;66.00;;;;;;6307533;22;20492;-71
2023/09/27 10:24:34;;;;;;;2.57;1.37;;;22.60;65.80;;;;;;6307451;22;20435;-70
2023/09/27 10:27:01;;;;;;;2.57;1.33;;;22.80;65.40;;;;;;6284394;22;20421;-70
2023/09/27 10:29:29;;;;;;;2.50;1.50;;;22.90;67.10;;;;;;6276390;22;20393;-70
2023/09/27 10:32:20;;;;;;;2.13;1.50;;;23.00;67.60;;;;;;6276527;22;20402;-71
2023/09/27 10:34:47;;;;;;;2.53;1.27;;;23.10;64.20;;;;;;6276093;22;20954;-74
2023/09/27 10:37:14;;;;;;;2.00;1.27;;;23.20;65.80;;;;;;6276012;22;20920;-73
2023/09/27 10:39:41;;;;;;;2.40;1.30;;;23.20;65.10;;;;;;6276461;22;20401;-74
2023/09/27 10:42:08;;;;;;;3.57;1.40;;;23.30;66.00;;;;;;6276083;22;20407;-74
2023/09/27 10:44:41;;;;;;;2.27;1.60;;;23.40;65.50;;;;;;6276000;22;20922;-76
2023/09/27 10:47:08;;;;;;;1.90;1.43;;;23.40;65.60;;;;;;6276285;22;20422;-73
2023/09/27 10:49:38;;;;;;;2.20;1.40;;;23.20;65.10;;;;;;6276392;22;20769;-73
2023/09/27 10:52:14;;;;;;;1.93;1.47;;;23.30;65.30;;;;;;6276032;22;20920;-74
2023/09/27 10:54:41;;;;;;;2.20;1.60;;;23.40;65.10;;;;;;6276322;22;20744;-74
2023/09/27 10:57:07;;;;;;;2.03;1.40;;;23.40;65.40;;;;;;6276570;22;20448;-74
2023/09/27 10:59:35;;;;;;;2.40;1.70;;;23.40;65.70;;;;;;6276271;22;20432;-73
2023/09/27 11:02:03;;;;;;;3.77;1.50;;;23.60;64.40;;;;;;6276904;22;20397;-74
2023/09/27 11:04:30;;;;;;;2.43;1.40;;;23.80;64.40;;;;;;6276597;22;20729;-73
2023/09/27 11:06:57;;;;;;;2.30;1.80;;;24.00;63.60;;;;;;6276248;22;20444;-73
2023/09/27 11:09:26;;;;;;;3.37;1.87;;;24.30;63.30;;;;;;6275975;22;20405;-73
2023/09/27 11:11:54;;;;;;;2.47;1.70;;;24.50;63.60;;;;;;6276270;22;20412;-73
2023/09/27 11:14:28;;;;;;;1.90;1.30;;;24.50;63.10;;;;;;6276161;22;20437;-73
2023/09/27 11:16:56;;;;;;;2.10;1.33;;;24.70;63.30;;;;;;6275794;22;20437;-73
2023/09/27 11:19:29;;;;;;;3.30;1.83;;;24.80;61.80;;;;;;6275849;22;20911;-73
2023/09/27 11:21:56;;;;;;;2.00;1.33;;;24.90;61.50;;;;;;6275877;22;20409;-73
2023/09/27 11:24:24;;;;;;;2.40;1.33;;;24.90;61.20;;;;;;6275893;22;20420;-73
2023/09/27 11:26:50;;;;;;;2.07;1.20;;;25.10;60.80;;;;;;6276174;22;20421;-74
2023/09/27 11:29:25;;;;;;;1.90;1.40;;;24.90;59.40;;;;;;6275873;22;20401;-74
2023/09/27 11:31:57;;;;;;;2.57;1.53;;;24.80;60.90;;;;;;6276388;22;20421;-74
2023/09/27 11:34:24;;;;;;;2.10;1.20;;;25.10;61.20;;;;;;6275830;22;20935;-74
2023/09/27 11:36:52;;;;;;;1.87;1.20;;;25.20;60.10;;;;;;6276144;22;20416;-74
2023/09/27 11:39:20;;;;;;;2.40;1.40;;;25.20;60.70;;;;;;6276231;22;20423;-74
2023/09/27 11:41:47;;;;;;;2.67;1.10;;;25.30;59.50;;;;;;6276458;22;20488;-74
2023/09/27 11:44:18;;;;;;;2.57;1.60;;;25.50;58.90;;;;;;6278003;22;20397;-74
2023/09/27 11:46:46;;;;;;;2.00;1.40;;;25.80;58.60;;;;;;6277936;22;20484;-74
2023/09/27 11:49:15;;;;;;;2.93;1.40;;;26.00;57.50;;;;;;6278257;22;20401;-74
2023/09/27 11:51:42;;;;;;;2.27;1.47;;;26.10;58.00;;;;;;6278638;22;20435;-74
2023/09/27 11:54:12;;;;;;;1.90;1.23;;;26.00;56.70;;;;;;6277844;22;20468;-74
2023/09/27 11:56:39;;;;;;;2.27;1.10;;;25.90;56.70;;;;;;6277792;22;20421;-73
2023/09/27 11:59:06;;;;;;;2.30;1.30;;;25.90;57.00;;;;;;6278244;22;20397;-74
2023/09/27 12:01:33;;;;;;;1.70;1.00;;;25.80;56.90;;;;;;6277495;22;20405;-73
2023/09/27 12:04:00;;;;;;;1.90;1.20;;;25.90;57.70;;;;;;6277813;22;20711;-74
2023/09/27 12:06:29;;;;;;;2.10;1.47;;;26.00;56.40;;;;;;6277266;22;20954;-74
2023/09/27 12:08:55;;;;;;;2.93;1.30;;;26.00;57.00;;;;;;6277349;22;20447;-73
2023/09/27 12:11:23;;;;;;;5.10;1.27;;;26.10;56.20;;;;;;6277814;22;20397;-73
2023/09/27 12:13:51;;;;;;;1.93;1.13;;;26.40;55.80;;;;;;6277580;22;20529;-73
2023/09/27 12:16:20;;;;;;;3.30;1.30;;;26.60;54.70;;;;;;6277300;22;20429;-74
2023/09/27 12:18:47;;;;;;;1.80;1.20;;;26.80;54.60;;;;;;6277296;22;20751;-74
2023/09/27 12:21:14;;;;;;;2.70;1.30;;;27.00;54.60;;;;;;6277635;22;20436;-73
2023/09/27 12:23:44;;;;;;;1.80;1.10;;;26.90;53.80;;;;;;6277607;22;20455;-74
2023/09/27 12:26:10;;;;;;;2.47;1.20;;;27.00;54.90;;;;;;6277178;22;20989;-73
2023/09/27 12:28:39;;;;;;;2.10;1.27;;;27.20;54.40;;;;;;6277601;22;20452;-73
2023/09/27 12:31:05;;;;;;;2.00;1.40;;;27.60;52.40;;;;;;6277890;22;20401;-74
2023/09/27 12:33:33;;;;;;;1.90;1.20;;;27.70;51.80;;;;;;6277481;22;20477;-74
2023/09/27 12:36:00;;;;;;;2.00;1.40;;;28.10;52.20;;;;;;6277011;22;20836;-74
2023/09/27 12:38:26;;;;;;;2.40;1.27;;;28.20;50.90;;;;;;6277548;22;20408;-74
2023/09/27 12:40:55;;;;;;;2.27;1.17;;;28.50;51.10;;;;;;6277612;22;20397;-74
2023/09/27 12:43:22;;;;;;;2.63;1.20;;;28.60;50.70;;;;;;6277451;22;20405;-74
2023/09/27 12:45:48;;;;;;;3.50;1.57;;;28.70;51.00;;;;;;6277301;22;20451;-73
2023/09/27 12:48:15;;;;;;;2.20;1.10;;;28.90;51.40;;;;;;6277495;22;20397;-73
2023/09/27 12:50:42;;;;;;;2.33;1.43;;;28.80;51.00;;;;;;6277579;22;20402;-73
2023/09/27 12:53:09;;;;;;;2.53;1.20;;;28.70;51.60;;;;;;6277114;22;20907;-74
2023/09/27 12:55:35;;;;;;;2.33;1.20;;;28.60;51.00;;;;;;6277709;22;20418;-73
2023/09/27 12:58:04;;;;;;;1.70;1.13;;;28.50;50.70;;;;;;6277581;22;20401;-74
2023/09/27 13:00:30;;;;;;;1.93;1.07;;;28.40;52.40;;;;;;6276987;22;20880;-74
2023/09/27 13:02:57;;;;;;;1.80;1.13;;;28.60;52.10;;;;;;6277331;22;20428;-74
2023/09/27 13:05:24;;;;;;;2.90;1.20;;;29.00;49.60;;;;;;6277205;22;20759;-74
2023/09/27 13:07:51;;;;;;;1.70;1.03;;;29.20;49.70;;;;;;6277286;22;20455;-74
2023/09/27 13:10:18;;;;;;;2.57;1.20;;;29.20;49.60;;;;;;6277154;22;20408;-74
2023/09/27 13:12:45;;;;;;;3.40;1.37;;;29.20;49.10;;;;;;6277779;22;20880;-74
2023/09/27 13:15:13;;;;;;;4.20;1.37;;;29.50;49.60;;;;;;6277661;22;20437;-74
2023/09/27 13:17:40;;;;;;;2.17;1.10;;;29.60;48.80;;;;;;6276653;22;20409;-74
2023/09/27 13:20:09;;;;;;;2.47;1.20;;;29.30;49.40;;;;;;6277435;22;20397;-74
2023/09/27 13:22:36;;;;;;;1.70;1.00;;;29.30;50.10;;;;;;6276796;22;20919;-74
2023/09/27 13:25:05;;;;;;;2.90;1.00;;;29.20;49.10;;;;;;6277086;22;20415;-74
2023/09/27 13:27:31;;;;;;;2.70;1.10;;;29.00;49.40;;;;;;6276572;22;20942;-73
2023/09/27 13:29:58;;;;;;;2.20;1.40;;;29.30;49.90;;;;;;6277008;22;20736;-74
2023/09/27 13:32:27;;;;;;;2.77;1.40;;;29.60;49.80;;;;;;6276993;22;20484;-73
2023/09/27 13:34:53;;;;;;;2.90;1.40;;;29.80;50.30;;;;;;6276839;22;20444;-74
2023/09/27 13:37:20;;;;;;;2.77;1.27;;;29.70;47.40;;;;;;6276784;22;20420;-74
2023/09/27 13:39:47;;;;;;;1.90;1.10;;;29.60;48.30;;;;;;6276900;22;20448;-74
2023/09/27 13:42:14;;;;;;;5.93;1.20;;;29.50;49.00;;;;;;6276506;22;20946;-73
2023/09/27 13:44:40;;;;;;;2.70;1.30;;;29.20;49.10;;;;;;6276888;22;20776;-74
2023/09/27 13:47:08;;;;;;;2.90;1.20;;;29.40;50.20;;;;;;6276772;22;20982;-74
2023/09/27 13:49:36;;;;;;;2.20;1.27;;;29.40;49.10;;;;;;6276800;22;20401;-73
2023/09/27 13:52:04;;;;;;;3.00;1.40;;;29.40;48.30;;;;;;6276824;22;20749;-74
2023/09/27 13:54:31;;;;;;;1.97;1.40;;;29.40;48.10;;;;;;6276717;22;20809;-74
2023/09/27 13:56:58;;;;;;;2.27;1.13;;;29.30;48.60;;;;;;6276622;22;20425;-74
2023/09/27 13:59:25;;;;;;;1.93;1.30;;;29.20;48.40;;;;;;6276696;22;20397;-74
2023/09/27 14:01:52;;;;;;;1.60;1.10;;;29.30;49.10;;;;;;6276726;22;20406;-74
2023/09/27 14:04:18;;;;;;;2.33;1.20;;;29.60;47.80;;;;;;6276085;22;20398;-74
2023/09/27 14:06:46;;;;;;;2.73;1.10;;;30.40;47.10;;;;;;6276109;22;20433;-74
2023/09/27 14:09:13;;;;;;;2.10;1.20;;;31.50;45.20;;;;;;6277034;22;20397;-74
2023/09/27 14:11:40;;;;;;;1.80;1.20;;;32.20;43.30;;;;;;6276240;22;20404;-75
2023/09/27 14:14:07;;;;;;;1.80;1.00;;;32.50;42.70;;;;;;6276100;22;20962;-74
2023/09/27 14:16:34;;;;;;;1.60;1.00;;;33.50;41.90;;;;;;6276118;22;20519;-74
2023/09/27 14:19:00;;;;;;;2.67;1.13;;;34.20;40.70;;;;;;6276582;22;20408;-74
2023/09/27 14:21:27;;;;;;;1.63;1.17;;;35.20;38.80;;;;;;6276833;22;20411;-74
2023/09/27 14:23:55;;;;;;;1.60;1.10;;;36.40;37.00;;;;;;6276518;22;20408;-74
2023/09/27 14:26:22;;;;;;;2.23;1.10;;;37.50;36.20;;;;;;6276197;22;20943;-75
2023/09/27 14:28:49;;;;;;;2.00;1.10;;;39.20;34.20;;;;;;6276501;22;20407;-74
2023/09/27 14:31:17;;;;;;;1.60;1.00;;;40.10;33.00;;;;;;6276502;22;20412;-74
2023/09/27 14:33:43;;;;;;;1.93;1.00;;;40.20;32.10;;;;;;6276523;22;20397;-74
2023/09/27 14:36:10;;;;;;;1.60;0.93;;;40.70;33.00;;;;;;6276366;22;20260;-75
2023/09/27 14:38:37;;;;;;;2.33;0.82;;;41.40;32.30;;;;;;6276517;22;20180;-74
2023/09/27 14:41:11;;;;;;;1.73;1.13;;;42.40;31.00;;;;;;6276426;22;20178;-75
2023/09/27 14:43:38;;;;;;;2.15;1.00;;;42.40;30.60;;;;;;6276429;22;20235;-74
2023/09/27 14:46:10;;;;;;;1.65;1.00;;;42.50;30.40;;;;;;6276344;22;20248;-74
2023/09/27 14:48:37;;;;;;;1.40;0.95;;;43.20;29.40;;;;;;6276490;22;20212;-74
2023/09/27 14:51:04;;;;;;;1.92;1.10;;;43.80;28.70;;;;;;6276405;22;20174;-74
2023/09/27 14:53:31;;;;;;;1.48;1.00;;;42.80;29.80;;;;;;6276414;22;20181;-74
2023/09/27 14:56:06;;;;;;;3.20;1.00;;;42.70;29.80;;;;;;6276211;22;20201;-74
2023/09/27 14:58:35;;;;;;;1.90;1.30;;;42.70;29.70;;;;;;6276405;22;20168;-75
2023/09/27 15:01:02;;;;;;;1.58;1.15;;;41.80;30.10;;;;;;6275957;22;20178;-74
2023/09/27 15:03:29;;;;;;;1.50;1.00;;;41.60;30.50;;;;;;6276652;22;20182;-74
2023/09/27 15:05:55;;;;;;;1.73;1.10;;;42.20;30.30;;;;;;6276317;22;20190;-74
2023/09/27 15:08:22;;;;;;;2.00;1.10;;;42.70;30.50;;;;;;6276418;22;20228;-74
2023/09/27 15:10:49;;;;;;;1.80;1.00;;;42.70;28.90;;;;;;6275831;22;20566;-74
2023/09/27 15:13:16;;;;;;;1.55;1.20;;;42.20;29.60;;;;;;6276024;22;20673;-74
2023/09/27 15:15:45;;;;;;;1.50;0.90;;;40.50;31.00;;;;;;6276176;22;20543;-73
2023/09/27 15:18:14;;;;;;;2.00;1.50;;;38.40;33.10;;;;;;6278268;22;20381;-74
2023/09/27 15:20:41;;;;;;;1.63;1.00;;;36.10;35.40;;;;;;6277999;22;20776;-73
2023/09/27 15:23:08;;;;;;;2.10;1.30;;;34.10;38.10;;;;;;6278357;22;20436;-74
2023/09/27 15:25:35;;;;;;;1.87;1.10;;;32.80;40.30;;;;;;6278216;22;20453;-74
2023/09/27 15:28:02;;;;;;;1.80;1.20;;;31.70;42.50;;;;;;6278249;22;20405;-74
2023/09/27 15:30:28;;;;;;;2.17;1.20;;;30.90;44.70;;;;;;6277864;22;20815;-74
2023/09/27 15:32:56;;;;;;;2.23;1.33;;;29.80;45.50;;;;;;6277827;22;20741;-73
2023/09/27 15:35:25;;;;;;;2.10;1.50;;;29.30;46.50;;;;;;6278114;22;20816;-74
2023/09/27 15:37:52;;;;;;;2.53;1.30;;;28.60;48.00;;;;;;6278246;22;20538;-73
2023/09/27 15:40:19;;;;;;;2.20;1.13;;;28.00;49.60;;;;;;6277766;22;20926;-73
2023/09/27 15:42:50;;;;;;;6.13;1.50;;;27.80;49.70;;;;;;6278134;22;20405;-73
2023/09/27 15:45:17;;;;;;;2.73;1.20;;;27.70;50.40;;;;;;6278242;22;20728;-74
2023/09/27 15:47:43;;;;;;;1.80;1.20;;;27.50;50.80;;;;;;6278321;22;20405;-73
2023/09/27 15:50:11;;;;;;;1.73;1.20;;;27.30;51.30;;;;;;6277994;22;20397;-73
2023/09/27 15:52:38;;;;;;;1.70;1.20;;;27.20;51.30;;;;;;6277640;22;20742;-73
2023/09/27 15:55:06;;;;;;;1.70;1.10;;;27.00;51.00;;;;;;6277938;22;20444;-73
2023/09/27 15:57:33;;;;;;;2.10;1.23;;;26.90;51.50;;;;;;6277934;22;20425;-73
2023/09/27 16:00:00;;;;;;;2.30;1.20;;;26.70;52.20;;;;;;6277957;22;20405;-73
2023/09/27 16:02:26;;;;;;;3.00;1.13;;;26.50;52.90;;;;;;6277935;22;20491;-75
2023/09/27 16:04:53;;;;;;;2.07;1.30;;;26.60;52.90;;;;;;6277919;22;20393;-75
2023/09/27 16:07:21;;;;;;;1.93;1.20;;;26.50;53.10;;;;;;6278312;22;20421;-74
2023/09/27 16:09:48;;;;;;;2.10;1.10;;;26.50;53.10;;;;;;6277884;22;20463;-74
2023/09/27 16:12:16;;;;;;;2.30;1.10;;;26.50;53.60;;;;;;6279202;22;20401;-74
2023/09/27 16:14:43;;;;;;;3.03;1.33;;;26.50;54.30;;;;;;6277341;22;20956;-74
2023/09/27 16:17:10;;;;;;;1.90;1.20;;;26.50;53.90;;;;;;6295471;22;20456;-75
2023/09/27 16:19:36;;;;;;;1.70;1.10;;;26.50;54.20;;;;;;6308728;22;20396;-75
2023/09/27 16:22:03;;;;;;;1.80;1.20;;;26.50;54.10;;;;;;6308732;22;20450;-75
2023/09/27 16:24:31;;;;;;;3.70;1.20;;;26.40;53.40;;;;;;6308649;22;20400;-75
2023/09/27 16:27:00;;;;;;;3.07;1.30;;;26.40;53.70;;;;;;6291843;22;20421;-75
2023/09/27 16:29:26;;;;;;;2.27;1.10;;;26.40;54.70;;;;;;6277440;22;20735;-75
2023/09/27 16:31:53;;;;;;;1.90;1.10;;;26.30;56.10;;;;;;6277672;22;20428;-75
2023/09/27 16:34:20;;;;;;;2.27;1.00;;;26.20;57.00;;;;;;6277501;22;20402;-75
2023/09/27 16:36:46;;;;;;;2.10;1.07;;;26.10;57.30;;;;;;6277469;22;20425;-75
2023/09/27 16:39:13;;;;;;;1.87;1.20;;;26.00;57.60;;;;;;6277513;22;20405;-75
2023/09/27 16:41:42;;;;;;;1.70;1.23;;;25.90;58.20;;;;;;6277573;22;20397;-75
2023/09/27 16:44:08;;;;;;;3.30;1.50;;;25.80;59.20;;;;;;6277545;22;20463;-74
2023/09/27 16:46:35;;;;;;;3.20;1.13;;;25.60;59.80;;;;;;6277188;22;20418;-74
2023/09/27 16:49:01;;;;;;;2.40;1.20;;;25.50;60.30;;;;;;6277561;22;20408;-75
2023/09/27 16:51:28;;;;;;;2.10;1.27;;;25.40;60.80;;;;;;6277466;22;20404;-75